sensor_id;sensor_type;location;lat;lon;timestamp;temperature;humidity
59148;DHT22;44930;52.878;6.168;2023-07-31T00:01:43;15.60;99.90
59148;DHT22;44930;52.878;6.168;2023-07-31T00:04:08;15.80;99.90
59148;DHT22;44930;52.878;6.168;2023-07-31T00:06:34;15.60;99.90
59148;DHT22;44930;52.878;6.168;2023-07-31T00:08:59;15.90;99.90
59148;DHT22;44930;52.878;6.168;2023-07-31T00:11:25;15.80;99.90
59148;DHT22;44930;52.878;6.168;2023-07-31T00:13:53;16.00;99.90
59148;DHT22;44930;52.878;6.168;2023-07-31T00:16:18;15.80;99.90
59148;DHT22;44930;52.878;6.168;2023-07-31T00:18:44;16.00;99.90
59148;DHT22;44930;52.878;6.168;2023-07-31T00:21:09;15.70;99.90
59148;DHT22;44930;52.878;6.168;2023-07-31T00:23:35;15.70;99.90
59148;DHT22;44930;52.878;6.168;2023-07-31T00:26:00;15.70;99.90
59148;DHT22;44930;52.878;6.168;2023-07-31T00:28:26;15.80;99.90
59148;DHT22;44930;52.878;6.168;2023-07-31T00:30:52;15.70;99.90
59148;DHT22;44930;52.878;6.168;2023-07-31T00:33:18;15.50;99.90
59148;DHT22;44930;52.878;6.168;2023-07-31T00:35:43;15.60;99.90
59148;DHT22;44930;52.878;6.168;2023-07-31T00:38:09;15.40;99.90
59148;DHT22;44930;52.878;6.168;2023-07-31T00:40:36;15.40;99.90
59148;DHT22;44930;52.878;6.168;2023-07-31T00:43:02;15.20;99.90
59148;DHT22;44930;52.878;6.168;2023-07-31T00:45:29;15.60;99.90
59148;DHT22;44930;52.878;6.168;2023-07-31T00:47:54;15.50;99.90
59148;DHT22;44930;52.878;6.168;2023-07-31T00:50:22;15.60;99.90
59148;DHT22;44930;52.878;6.168;2023-07-31T00:52:49;15.60;99.90
59148;DHT22;44930;52.878;6.168;2023-07-31T00:55:15;15.60;99.90
59148;DHT22;44930;52.878;6.168;2023-07-31T00:57:41;15.70;99.90
59148;DHT22;44930;52.878;6.168;2023-07-31T01:00:08;15.60;99.90
59148;DHT22;44930;52.878;6.168;2023-07-31T01:02:35;15.50;99.90
59148;DHT22;44930;52.878;6.168;2023-07-31T01:05:02;15.60;99.90
59148;DHT22;44930;52.878;6.168;2023-07-31T01:08:11;15.50;99.90
59148;DHT22;44930;52.878;6.168;2023-07-31T01:10:49;15.60;99.90
59148;DHT22;44930;52.878;6.168;2023-07-31T01:13:17;15.60;99.90
59148;DHT22;44930;52.878;6.168;2023-07-31T01:15:43;15.20;99.90
59148;DHT22;44930;52.878;6.168;2023-07-31T01:18:08;15.80;99.90
59148;DHT22;44930;52.878;6.168;2023-07-31T01:20:35;15.60;99.90
59148;DHT22;44930;52.878;6.168;2023-07-31T01:23:28;15.90;99.90
59148;DHT22;44930;52.878;6.168;2023-07-31T01:29:07;15.50;99.90
59148;DHT22;44930;52.878;6.168;2023-07-31T01:31:36;15.50;99.90
59148;DHT22;44930;52.878;6.168;2023-07-31T01:34:02;15.60;99.90
59148;DHT22;44930;52.878;6.168;2023-07-31T01:36:30;15.60;99.90
59148;DHT22;44930;52.878;6.168;2023-07-31T01:38:59;15.50;99.90
59148;DHT22;44930;52.878;6.168;2023-07-31T01:41:26;15.30;99.90
59148;DHT22;44930;52.878;6.168;2023-07-31T01:43:51;15.60;99.90
59148;DHT22;44930;52.878;6.168;2023-07-31T01:46:17;15.60;99.90
59148;DHT22;44930;52.878;6.168;2023-07-31T01:48:42;15.60;99.90
59148;DHT22;44930;52.878;6.168;2023-07-31T01:51:08;15.60;99.90
59148;DHT22;44930;52.878;6.168;2023-07-31T01:53:33;15.60;99.90
59148;DHT22;44930;52.878;6.168;2023-07-31T01:55:59;15.70;99.90
59148;DHT22;44930;52.878;6.168;2023-07-31T01:58:25;15.70;99.90
59148;DHT22;44930;52.878;6.168;2023-07-31T02:00:50;15.60;99.90
59148;DHT22;44930;52.878;6.168;2023-07-31T02:03:16;15.60;99.90
59148;DHT22;44930;52.878;6.168;2023-07-31T02:05:45;15.70;99.90
59148;DHT22;44930;52.878;6.168;2023-07-31T02:08:11;15.70;99.90
59148;DHT22;44930;52.878;6.168;2023-07-31T02:10:37;15.80;99.90
59148;DHT22;44930;52.878;6.168;2023-07-31T02:13:02;15.50;99.90
59148;DHT22;44930;52.878;6.168;2023-07-31T02:15:29;15.80;99.90
59148;DHT22;44930;52.878;6.168;2023-07-31T02:17:55;15.70;99.90
59148;DHT22;44930;52.878;6.168;2023-07-31T02:20:21;15.70;99.90
59148;DHT22;44930;52.878;6.168;2023-07-31T02:22:46;15.40;99.90
59148;DHT22;44930;52.878;6.168;2023-07-31T02:25:12;15.70;99.90
59148;DHT22;44930;52.878;6.168;2023-07-31T02:27:37;15.70;99.90
59148;DHT22;44930;52.878;6.168;2023-07-31T02:30:03;15.70;99.90
59148;DHT22;44930;52.878;6.168;2023-07-31T02:34:54;15.80;99.90
59148;DHT22;44930;52.878;6.168;2023-07-31T02:37:20;15.60;99.90
59148;DHT22;44930;52.878;6.168;2023-07-31T02:39:46;15.80;99.90
59148;DHT22;44930;52.878;6.168;2023-07-31T02:42:12;15.50;99.90
59148;DHT22;44930;52.878;6.168;2023-07-31T02:44:37;16.20;99.90
59148;DHT22;44930;52.878;6.168;2023-07-31T02:47:03;15.80;99.90
59148;DHT22;44930;52.878;6.168;2023-07-31T02:49:29;16.20;99.90
59148;DHT22;44930;52.878;6.168;2023-07-31T02:51:54;15.90;99.90
59148;DHT22;44930;52.878;6.168;2023-07-31T02:54:20;15.80;99.90
59148;DHT22;44930;52.878;6.168;2023-07-31T02:56:47;15.70;99.90
59148;DHT22;44930;52.878;6.168;2023-07-31T02:59:13;15.80;99.90
59148;DHT22;44930;52.878;6.168;2023-07-31T03:01:38;15.80;99.90
59148;DHT22;44930;52.878;6.168;2023-07-31T03:04:04;16.00;99.90
59148;DHT22;44930;52.878;6.168;2023-07-31T03:06:30;15.80;99.90
59148;DHT22;44930;52.878;6.168;2023-07-31T03:08:55;15.90;99.90
59148;DHT22;44930;52.878;6.168;2023-07-31T03:11:21;15.90;99.90
59148;DHT22;44930;52.878;6.168;2023-07-31T03:13:46;15.80;99.90
59148;DHT22;44930;52.878;6.168;2023-07-31T03:16:12;15.80;99.90
59148;DHT22;44930;52.878;6.168;2023-07-31T03:18:37;15.80;99.90
59148;DHT22;44930;52.878;6.168;2023-07-31T03:21:04;15.80;99.90
59148;DHT22;44930;52.878;6.168;2023-07-31T03:23:30;15.90;99.90
59148;DHT22;44930;52.878;6.168;2023-07-31T03:25:59;16.00;99.90
59148;DHT22;44930;52.878;6.168;2023-07-31T03:28:25;15.60;99.90
59148;DHT22;44930;52.878;6.168;2023-07-31T03:30:51;15.90;99.90
59148;DHT22;44930;52.878;6.168;2023-07-31T03:33:17;15.90;99.90
59148;DHT22;44930;52.878;6.168;2023-07-31T03:35:42;15.90;99.90
59148;DHT22;44930;52.878;6.168;2023-07-31T03:38:08;15.90;99.90
59148;DHT22;44930;52.878;6.168;2023-07-31T03:40:34;15.90;99.90
59148;DHT22;44930;52.878;6.168;2023-07-31T03:42:59;15.60;99.90
59148;DHT22;44930;52.878;6.168;2023-07-31T03:45:25;16.00;99.90
59148;DHT22;44930;52.878;6.168;2023-07-31T03:47:50;15.70;99.90
59148;DHT22;44930;52.878;6.168;2023-07-31T03:50:16;15.80;99.90
59148;DHT22;44930;52.878;6.168;2023-07-31T03:52:42;15.70;99.90
59148;DHT22;44930;52.878;6.168;2023-07-31T03:55:07;15.80;99.90
59148;DHT22;44930;52.878;6.168;2023-07-31T03:57:33;15.80;99.90
59148;DHT22;44930;52.878;6.168;2023-07-31T03:59:59;15.70;99.90
59148;DHT22;44930;52.878;6.168;2023-07-31T04:04:50;15.80;99.90
59148;DHT22;44930;52.878;6.168;2023-07-31T04:07:16;15.60;99.90
59148;DHT22;44930;52.878;6.168;2023-07-31T04:09:41;15.70;99.90
59148;DHT22;44930;52.878;6.168;2023-07-31T04:12:07;15.90;99.90
59148;DHT22;44930;52.878;6.168;2023-07-31T04:14:33;15.80;99.90
59148;DHT22;44930;52.878;6.168;2023-07-31T04:16:58;16.00;99.90
59148;DHT22;44930;52.878;6.168;2023-07-31T04:19:24;15.70;99.90
59148;DHT22;44930;52.878;6.168;2023-07-31T04:21:50;16.00;99.90
59148;DHT22;44930;52.878;6.168;2023-07-31T04:24:15;16.30;99.90
59148;DHT22;44930;52.878;6.168;2023-07-31T04:26:41;16.10;99.90
59148;DHT22;44930;52.878;6.168;2023-07-31T04:31:33;16.20;99.90
59148;DHT22;44930;52.878;6.168;2023-07-31T04:33:59;16.30;99.90
59148;DHT22;44930;52.878;6.168;2023-07-31T04:36:25;16.30;99.90
59148;DHT22;44930;52.878;6.168;2023-07-31T04:38:50;16.40;99.90
59148;DHT22;44930;52.878;6.168;2023-07-31T04:41:16;16.30;99.90
59148;DHT22;44930;52.878;6.168;2023-07-31T04:43:41;16.30;99.90
59148;DHT22;44930;52.878;6.168;2023-07-31T04:46:07;16.20;99.90
59148;DHT22;44930;52.878;6.168;2023-07-31T04:48:32;16.40;99.90
59148;DHT22;44930;52.878;6.168;2023-07-31T04:50:58;16.30;99.90
59148;DHT22;44930;52.878;6.168;2023-07-31T04:53:23;16.30;99.90
59148;DHT22;44930;52.878;6.168;2023-07-31T04:55:49;16.20;99.90
59148;DHT22;44930;52.878;6.168;2023-07-31T04:58:14;16.90;99.90
59148;DHT22;44930;52.878;6.168;2023-07-31T05:00:40;16.60;99.90
59148;DHT22;44930;52.878;6.168;2023-07-31T05:03:05;16.20;99.90
59148;DHT22;44930;52.878;6.168;2023-07-31T05:05:32;16.30;99.90
59148;DHT22;44930;52.878;6.168;2023-07-31T05:07:58;16.40;99.90
59148;DHT22;44930;52.878;6.168;2023-07-31T05:10:23;16.30;99.90
59148;DHT22;44930;52.878;6.168;2023-07-31T05:12:49;16.30;99.90
59148;DHT22;44930;52.878;6.168;2023-07-31T05:15:14;16.40;99.90
59148;DHT22;44930;52.878;6.168;2023-07-31T05:17:40;16.50;99.90
59148;DHT22;44930;52.878;6.168;2023-07-31T05:20:06;16.40;99.90
59148;DHT22;44930;52.878;6.168;2023-07-31T05:22:32;16.40;99.90
59148;DHT22;44930;52.878;6.168;2023-07-31T05:27:23;16.60;99.90
59148;DHT22;44930;52.878;6.168;2023-07-31T05:29:49;16.60;99.90
59148;DHT22;44930;52.878;6.168;2023-07-31T05:32:14;16.40;99.90
59148;DHT22;44930;52.878;6.168;2023-07-31T05:34:40;16.70;99.90
59148;DHT22;44930;52.878;6.168;2023-07-31T05:37:05;16.30;99.90
59148;DHT22;44930;52.878;6.168;2023-07-31T05:39:31;16.50;99.90
59148;DHT22;44930;52.878;6.168;2023-07-31T05:41:57;16.70;99.90
59148;DHT22;44930;52.878;6.168;2023-07-31T05:44:22;16.70;99.90
59148;DHT22;44930;52.878;6.168;2023-07-31T05:46:48;16.50;99.90
59148;DHT22;44930;52.878;6.168;2023-07-31T05:49:13;16.30;99.90
59148;DHT22;44930;52.878;6.168;2023-07-31T05:51:39;16.70;99.90
59148;DHT22;44930;52.878;6.168;2023-07-31T05:54:04;16.40;99.90
59148;DHT22;44930;52.878;6.168;2023-07-31T05:56:30;16.50;99.90
59148;DHT22;44930;52.878;6.168;2023-07-31T05:58:57;16.50;99.90
59148;DHT22;44930;52.878;6.168;2023-07-31T06:01:22;16.50;99.90
59148;DHT22;44930;52.878;6.168;2023-07-31T06:03:48;16.70;99.90
59148;DHT22;44930;52.878;6.168;2023-07-31T06:06:13;16.60;99.90
59148;DHT22;44930;52.878;6.168;2023-07-31T06:08:39;16.60;99.90
59148;DHT22;44930;52.878;6.168;2023-07-31T06:11:05;16.30;99.90
59148;DHT22;44930;52.878;6.168;2023-07-31T06:13:31;16.50;99.90
59148;DHT22;44930;52.878;6.168;2023-07-31T06:15:57;16.50;99.90
59148;DHT22;44930;52.878;6.168;2023-07-31T06:18:22;16.40;99.90
59148;DHT22;44930;52.878;6.168;2023-07-31T06:20:48;16.30;99.90
59148;DHT22;44930;52.878;6.168;2023-07-31T06:23:19;16.40;99.90
59148;DHT22;44930;52.878;6.168;2023-07-31T06:25:44;15.80;99.90
59148;DHT22;44930;52.878;6.168;2023-07-31T06:28:10;16.50;99.90
59148;DHT22;44930;52.878;6.168;2023-07-31T06:30:35;16.20;99.90
59148;DHT22;44930;52.878;6.168;2023-07-31T06:33:01;16.40;99.90
59148;DHT22;44930;52.878;6.168;2023-07-31T06:35:26;16.50;99.90
59148;DHT22;44930;52.878;6.168;2023-07-31T06:37:52;16.30;99.90
59148;DHT22;44930;52.878;6.168;2023-07-31T06:40:18;16.10;99.90
59148;DHT22;44930;52.878;6.168;2023-07-31T06:42:44;16.70;99.90
59148;DHT22;44930;52.878;6.168;2023-07-31T06:45:10;16.60;99.90
59148;DHT22;44930;52.878;6.168;2023-07-31T06:47:36;16.50;99.90
59148;DHT22;44930;52.878;6.168;2023-07-31T06:50:01;16.30;99.90
59148;DHT22;44930;52.878;6.168;2023-07-31T06:52:27;16.10;99.90
59148;DHT22;44930;52.878;6.168;2023-07-31T06:55:17;16.50;99.90
59148;DHT22;44930;52.878;6.168;2023-07-31T07:00:16;16.60;99.90
59148;DHT22;44930;52.878;6.168;2023-07-31T07:05:08;16.20;99.90
59148;DHT22;44930;52.878;6.168;2023-07-31T07:07:34;16.50;99.90
59148;DHT22;44930;52.878;6.168;2023-07-31T07:09:59;16.30;99.90
59148;DHT22;44930;52.878;6.168;2023-07-31T07:12:25;16.20;99.90
59148;DHT22;44930;52.878;6.168;2023-07-31T07:14:51;16.20;99.90
59148;DHT22;44930;52.878;6.168;2023-07-31T07:19:44;16.50;99.90
59148;DHT22;44930;52.878;6.168;2023-07-31T07:22:11;16.50;99.90
59148;DHT22;44930;52.878;6.168;2023-07-31T07:24:37;16.50;99.90
59148;DHT22;44930;52.878;6.168;2023-07-31T07:27:03;16.50;99.90
59148;DHT22;44930;52.878;6.168;2023-07-31T07:29:29;16.50;99.90
59148;DHT22;44930;52.878;6.168;2023-07-31T07:31:54;16.60;99.90
59148;DHT22;44930;52.878;6.168;2023-07-31T07:34:22;16.60;99.90
59148;DHT22;44930;52.878;6.168;2023-07-31T07:36:48;17.00;99.90
59148;DHT22;44930;52.878;6.168;2023-07-31T07:39:14;16.10;99.90
59148;DHT22;44930;52.878;6.168;2023-07-31T07:41:39;16.50;99.90
59148;DHT22;44930;52.878;6.168;2023-07-31T07:44:05;16.80;99.90
59148;DHT22;44930;52.878;6.168;2023-07-31T07:46:31;16.50;99.90
59148;DHT22;44930;52.878;6.168;2023-07-31T07:48:56;16.20;99.90
59148;DHT22;44930;52.878;6.168;2023-07-31T07:51:22;16.20;99.90
59148;DHT22;44930;52.878;6.168;2023-07-31T07:53:47;16.40;99.90
59148;DHT22;44930;52.878;6.168;2023-07-31T07:56:13;16.70;99.90
59148;DHT22;44930;52.878;6.168;2023-07-31T07:58:38;16.70;99.90
59148;DHT22;44930;52.878;6.168;2023-07-31T08:01:04;17.00;99.90
59148;DHT22;44930;52.878;6.168;2023-07-31T08:03:29;17.10;99.90
59148;DHT22;44930;52.878;6.168;2023-07-31T08:06:01;16.70;99.90
59148;DHT22;44930;52.878;6.168;2023-07-31T08:08:28;16.50;99.90
59148;DHT22;44930;52.878;6.168;2023-07-31T08:10:54;16.70;99.90
59148;DHT22;44930;52.878;6.168;2023-07-31T08:13:19;16.80;99.90
59148;DHT22;44930;52.878;6.168;2023-07-31T08:15:45;16.70;99.90
59148;DHT22;44930;52.878;6.168;2023-07-31T08:18:12;16.80;99.90
59148;DHT22;44930;52.878;6.168;2023-07-31T08:20:38;16.80;99.90
59148;DHT22;44930;52.878;6.168;2023-07-31T08:23:03;16.70;99.90
59148;DHT22;44930;52.878;6.168;2023-07-31T08:25:29;16.80;99.90
59148;DHT22;44930;52.878;6.168;2023-07-31T08:27:55;16.90;99.90
59148;DHT22;44930;52.878;6.168;2023-07-31T08:30:21;16.80;99.90
59148;DHT22;44930;52.878;6.168;2023-07-31T08:32:47;16.90;99.90
59148;DHT22;44930;52.878;6.168;2023-07-31T08:35:12;16.90;99.90
59148;DHT22;44930;52.878;6.168;2023-07-31T08:37:38;16.80;99.90
59148;DHT22;44930;52.878;6.168;2023-07-31T08:40:05;17.00;99.90
59148;DHT22;44930;52.878;6.168;2023-07-31T08:42:31;17.00;99.90
59148;DHT22;44930;52.878;6.168;2023-07-31T08:44:57;17.00;99.90
59148;DHT22;44930;52.878;6.168;2023-07-31T08:47:26;17.00;99.90
59148;DHT22;44930;52.878;6.168;2023-07-31T08:49:53;17.00;99.90
59148;DHT22;44930;52.878;6.168;2023-07-31T08:52:19;17.00;99.90
59148;DHT22;44930;52.878;6.168;2023-07-31T08:54:44;17.10;99.90
59148;DHT22;44930;52.878;6.168;2023-07-31T08:57:11;17.10;99.90
59148;DHT22;44930;52.878;6.168;2023-07-31T08:59:37;17.00;99.90
59148;DHT22;44930;52.878;6.168;2023-07-31T09:02:06;17.10;99.90
59148;DHT22;44930;52.878;6.168;2023-07-31T09:04:33;17.20;99.90
59148;DHT22;44930;52.878;6.168;2023-07-31T09:07:01;17.10;99.90
59148;DHT22;44930;52.878;6.168;2023-07-31T09:09:28;17.10;99.90
59148;DHT22;44930;52.878;6.168;2023-07-31T09:11:55;17.10;99.90
59148;DHT22;44930;52.878;6.168;2023-07-31T09:14:21;17.30;99.90
59148;DHT22;44930;52.878;6.168;2023-07-31T09:16:54;17.40;99.90
59148;DHT22;44930;52.878;6.168;2023-07-31T09:19:33;17.10;99.90
59148;DHT22;44930;52.878;6.168;2023-07-31T09:22:00;17.20;99.90
59148;DHT22;44930;52.878;6.168;2023-07-31T09:24:26;17.40;99.90
59148;DHT22;44930;52.878;6.168;2023-07-31T09:26:54;17.40;99.90
59148;DHT22;44930;52.878;6.168;2023-07-31T09:29:21;17.40;99.90
59148;DHT22;44930;52.878;6.168;2023-07-31T09:31:47;17.50;99.90
59148;DHT22;44930;52.878;6.168;2023-07-31T09:34:12;17.40;99.90
59148;DHT22;44930;52.878;6.168;2023-07-31T09:36:49;17.60;99.90
59148;DHT22;44930;52.878;6.168;2023-07-31T09:39:16;17.60;99.90
59148;DHT22;44930;52.878;6.168;2023-07-31T09:41:44;17.70;99.90
59148;DHT22;44930;52.878;6.168;2023-07-31T09:44:10;17.70;99.90
59148;DHT22;44930;52.878;6.168;2023-07-31T09:46:36;17.60;99.90
59148;DHT22;44930;52.878;6.168;2023-07-31T09:49:12;17.60;99.90
59148;DHT22;44930;52.878;6.168;2023-07-31T09:51:40;17.70;99.90
59148;DHT22;44930;52.878;6.168;2023-07-31T09:54:13;17.70;99.90
59148;DHT22;44930;52.878;6.168;2023-07-31T09:56:46;17.70;99.90
59148;DHT22;44930;52.878;6.168;2023-07-31T09:59:17;17.70;99.90
59148;DHT22;44930;52.878;6.168;2023-07-31T10:01:44;17.90;99.90
59148;DHT22;44930;52.878;6.168;2023-07-31T10:04:11;17.80;99.90
59148;DHT22;44930;52.878;6.168;2023-07-31T10:06:38;17.90;99.90
59148;DHT22;44930;52.878;6.168;2023-07-31T10:09:08;17.70;99.90
59148;DHT22;44930;52.878;6.168;2023-07-31T10:11:38;17.80;99.90
59148;DHT22;44930;52.878;6.168;2023-07-31T10:14:07;17.70;99.90
59148;DHT22;44930;52.878;6.168;2023-07-31T10:16:37;18.00;99.90
59148;DHT22;44930;52.878;6.168;2023-07-31T10:19:03;18.10;99.90
59148;DHT22;44930;52.878;6.168;2023-07-31T10:21:29;18.40;99.90
59148;DHT22;44930;52.878;6.168;2023-07-31T10:23:55;18.40;99.90
59148;DHT22;44930;52.878;6.168;2023-07-31T10:26:23;18.40;99.90
59148;DHT22;44930;52.878;6.168;2023-07-31T10:28:50;18.50;99.90
59148;DHT22;44930;52.878;6.168;2023-07-31T10:31:18;18.70;99.90
59148;DHT22;44930;52.878;6.168;2023-07-31T10:33:45;18.70;99.90
59148;DHT22;44930;52.878;6.168;2023-07-31T10:36:17;18.60;99.90
59148;DHT22;44930;52.878;6.168;2023-07-31T10:38:44;18.70;99.90
59148;DHT22;44930;52.878;6.168;2023-07-31T10:41:10;18.70;99.90
59148;DHT22;44930;52.878;6.168;2023-07-31T10:43:37;18.80;99.90
59148;DHT22;44930;52.878;6.168;2023-07-31T10:46:11;18.60;99.90
59148;DHT22;44930;52.878;6.168;2023-07-31T10:48:39;18.80;99.90
59148;DHT22;44930;52.878;6.168;2023-07-31T10:51:08;18.40;99.90
59148;DHT22;44930;52.878;6.168;2023-07-31T10:53:35;18.70;99.90
59148;DHT22;44930;52.878;6.168;2023-07-31T10:56:08;18.90;99.90
59148;DHT22;44930;52.878;6.168;2023-07-31T10:58:35;18.70;99.90
59148;DHT22;44930;52.878;6.168;2023-07-31T11:01:02;18.70;99.90
59148;DHT22;44930;52.878;6.168;2023-07-31T11:03:50;18.60;99.90
59148;DHT22;44930;52.878;6.168;2023-07-31T11:06:19;18.70;99.90
59148;DHT22;44930;52.878;6.168;2023-07-31T11:08:49;18.00;99.90
59148;DHT22;44930;52.878;6.168;2023-07-31T11:11:17;18.70;99.90
59148;DHT22;44930;52.878;6.168;2023-07-31T11:13:48;18.50;99.90
59148;DHT22;44930;52.878;6.168;2023-07-31T11:16:24;18.50;99.90
59148;DHT22;44930;52.878;6.168;2023-07-31T11:18:51;18.50;99.90
59148;DHT22;44930;52.878;6.168;2023-07-31T11:21:23;18.50;99.90
59148;DHT22;44930;52.878;6.168;2023-07-31T11:23:50;18.50;99.90
59148;DHT22;44930;52.878;6.168;2023-07-31T11:26:17;18.50;99.90
59148;DHT22;44930;52.878;6.168;2023-07-31T11:28:43;18.50;99.90
59148;DHT22;44930;52.878;6.168;2023-07-31T11:31:09;18.50;99.90
59148;DHT22;44930;52.878;6.168;2023-07-31T11:33:35;19.30;99.90
59148;DHT22;44930;52.878;6.168;2023-07-31T11:36:01;18.40;99.90
59148;DHT22;44930;52.878;6.168;2023-07-31T11:38:34;19.00;99.90
59148;DHT22;44930;52.878;6.168;2023-07-31T11:41:03;19.10;99.90
59148;DHT22;44930;52.878;6.168;2023-07-31T11:43:32;18.90;99.90
59148;DHT22;44930;52.878;6.168;2023-07-31T11:45:59;18.90;99.90
59148;DHT22;44930;52.878;6.168;2023-07-31T11:48:30;18.70;99.90
59148;DHT22;44930;52.878;6.168;2023-07-31T11:53:43;18.70;99.90
59148;DHT22;44930;52.878;6.168;2023-07-31T11:56:13;19.10;99.90
59148;DHT22;44930;52.878;6.168;2023-07-31T11:58:39;18.70;99.90
59148;DHT22;44930;52.878;6.168;2023-07-31T12:03:33;18.60;99.90
59148;DHT22;44930;52.878;6.168;2023-07-31T12:05:59;18.60;99.90
59148;DHT22;44930;52.878;6.168;2023-07-31T12:08:25;18.50;99.90
59148;DHT22;44930;52.878;6.168;2023-07-31T12:10:52;18.60;99.90
59148;DHT22;44930;52.878;6.168;2023-07-31T12:13:23;19.00;99.90
59148;DHT22;44930;52.878;6.168;2023-07-31T12:15:49;18.60;99.90
59148;DHT22;44930;52.878;6.168;2023-07-31T12:18:22;18.60;99.90
59148;DHT22;44930;52.878;6.168;2023-07-31T12:20:58;18.60;99.90
59148;DHT22;44930;52.878;6.168;2023-07-31T12:23:30;18.40;99.90
59148;DHT22;44930;52.878;6.168;2023-07-31T12:26:10;18.30;99.90
59148;DHT22;44930;52.878;6.168;2023-07-31T12:31:02;18.40;99.90
59148;DHT22;44930;52.878;6.168;2023-07-31T12:33:33;18.40;99.90
59148;DHT22;44930;52.878;6.168;2023-07-31T12:36:04;18.40;99.90
59148;DHT22;44930;52.878;6.168;2023-07-31T12:38:31;18.50;99.90
59148;DHT22;44930;52.878;6.168;2023-07-31T12:40:57;18.70;99.90
59148;DHT22;44930;52.878;6.168;2023-07-31T12:43:23;18.80;99.90
59148;DHT22;44930;52.878;6.168;2023-07-31T12:45:49;18.80;99.90
59148;DHT22;44930;52.878;6.168;2023-07-31T12:48:14;18.90;99.90
59148;DHT22;44930;52.878;6.168;2023-07-31T12:50:40;19.10;99.90
59148;DHT22;44930;52.878;6.168;2023-07-31T12:53:05;18.90;99.90
59148;DHT22;44930;52.878;6.168;2023-07-31T12:55:32;18.90;99.90
59148;DHT22;44930;52.878;6.168;2023-07-31T12:58:00;19.10;99.90
59148;DHT22;44930;52.878;6.168;2023-07-31T13:00:26;19.10;99.90
59148;DHT22;44930;52.878;6.168;2023-07-31T13:02:52;19.10;99.90
59148;DHT22;44930;52.878;6.168;2023-07-31T13:05:18;19.10;99.90
59148;DHT22;44930;52.878;6.168;2023-07-31T13:07:46;19.00;99.90
59148;DHT22;44930;52.878;6.168;2023-07-31T13:10:11;19.00;99.90
59148;DHT22;44930;52.878;6.168;2023-07-31T13:12:37;19.10;99.90
59148;DHT22;44930;52.878;6.168;2023-07-31T13:15:04;19.00;99.90
59148;DHT22;44930;52.878;6.168;2023-07-31T13:17:29;18.90;99.90
59148;DHT22;44930;52.878;6.168;2023-07-31T13:19:55;19.10;99.90
59148;DHT22;44930;52.878;6.168;2023-07-31T13:22:21;19.10;99.90
59148;DHT22;44930;52.878;6.168;2023-07-31T13:24:46;19.10;99.90
59148;DHT22;44930;52.878;6.168;2023-07-31T13:27:12;19.00;99.90
59148;DHT22;44930;52.878;6.168;2023-07-31T13:29:37;19.10;99.90
59148;DHT22;44930;52.878;6.168;2023-07-31T13:32:03;19.10;99.90
59148;DHT22;44930;52.878;6.168;2023-07-31T13:34:29;19.20;99.90
59148;DHT22;44930;52.878;6.168;2023-07-31T13:36:55;19.10;99.90
59148;DHT22;44930;52.878;6.168;2023-07-31T13:39:21;19.20;99.90
59148;DHT22;44930;52.878;6.168;2023-07-31T13:41:47;19.20;99.90
59148;DHT22;44930;52.878;6.168;2023-07-31T13:44:12;19.30;99.90
59148;DHT22;44930;52.878;6.168;2023-07-31T13:46:38;19.30;99.90
59148;DHT22;44930;52.878;6.168;2023-07-31T13:49:03;19.30;99.90
59148;DHT22;44930;52.878;6.168;2023-07-31T13:51:29;19.10;99.90
59148;DHT22;44930;52.878;6.168;2023-07-31T13:53:54;19.20;99.90
59148;DHT22;44930;52.878;6.168;2023-07-31T13:56:20;19.20;99.90
59148;DHT22;44930;52.878;6.168;2023-07-31T13:58:46;19.30;99.90
59148;DHT22;44930;52.878;6.168;2023-07-31T14:01:11;19.10;99.90
59148;DHT22;44930;52.878;6.168;2023-07-31T14:03:38;19.40;99.90
59148;DHT22;44930;52.878;6.168;2023-07-31T14:06:04;19.30;99.90
59148;DHT22;44930;52.878;6.168;2023-07-31T14:08:29;19.40;99.90
59148;DHT22;44930;52.878;6.168;2023-07-31T14:10:55;19.30;99.90
59148;DHT22;44930;52.878;6.168;2023-07-31T14:13:21;19.40;99.90
59148;DHT22;44930;52.878;6.168;2023-07-31T14:15:47;19.40;99.90
59148;DHT22;44930;52.878;6.168;2023-07-31T14:18:12;19.50;99.90
59148;DHT22;44930;52.878;6.168;2023-07-31T14:20:38;19.50;99.90
59148;DHT22;44930;52.878;6.168;2023-07-31T14:23:03;19.40;99.90
59148;DHT22;44930;52.878;6.168;2023-07-31T14:25:29;19.80;99.90
59148;DHT22;44930;52.878;6.168;2023-07-31T14:27:55;19.60;99.90
59148;DHT22;44930;52.878;6.168;2023-07-31T14:30:20;19.70;99.90
59148;DHT22;44930;52.878;6.168;2023-07-31T14:35:12;19.50;99.90
59148;DHT22;44930;52.878;6.168;2023-07-31T14:37:43;19.60;99.90
59148;DHT22;44930;52.878;6.168;2023-07-31T14:40:10;19.50;99.90
59148;DHT22;44930;52.878;6.168;2023-07-31T14:42:36;19.40;99.90
59148;DHT22;44930;52.878;6.168;2023-07-31T14:45:04;19.50;99.90
59148;DHT22;44930;52.878;6.168;2023-07-31T14:47:29;19.60;99.90
59148;DHT22;44930;52.878;6.168;2023-07-31T14:49:56;19.40;99.90
59148;DHT22;44930;52.878;6.168;2023-07-31T14:52:22;19.10;99.90
59148;DHT22;44930;52.878;6.168;2023-07-31T14:54:47;19.20;99.90
59148;DHT22;44930;52.878;6.168;2023-07-31T14:57:13;19.40;99.90
59148;DHT22;44930;52.878;6.168;2023-07-31T14:59:38;19.30;99.90
59148;DHT22;44930;52.878;6.168;2023-07-31T15:02:04;19.30;99.90
59148;DHT22;44930;52.878;6.168;2023-07-31T15:04:30;19.40;99.90
59148;DHT22;44930;52.878;6.168;2023-07-31T15:06:56;19.20;99.90
59148;DHT22;44930;52.878;6.168;2023-07-31T15:09:21;19.10;99.90
59148;DHT22;44930;52.878;6.168;2023-07-31T15:11:47;19.30;99.90
59148;DHT22;44930;52.878;6.168;2023-07-31T15:14:13;19.20;99.90
59148;DHT22;44930;52.878;6.168;2023-07-31T15:16:38;19.30;99.90
59148;DHT22;44930;52.878;6.168;2023-07-31T15:19:04;19.20;99.90
59148;DHT22;44930;52.878;6.168;2023-07-31T15:21:29;19.20;99.90
59148;DHT22;44930;52.878;6.168;2023-07-31T15:23:55;19.10;99.90
59148;DHT22;44930;52.878;6.168;2023-07-31T15:26:21;19.20;99.90
59148;DHT22;44930;52.878;6.168;2023-07-31T15:28:50;19.10;99.90
59148;DHT22;44930;52.878;6.168;2023-07-31T15:31:20;18.90;99.90
59148;DHT22;44930;52.878;6.168;2023-07-31T15:33:47;19.10;99.90
59148;DHT22;44930;52.878;6.168;2023-07-31T15:41:05;19.10;99.90
59148;DHT22;44930;52.878;6.168;2023-07-31T15:43:31;19.00;99.90
59148;DHT22;44930;52.878;6.168;2023-07-31T15:45:57;19.00;99.90
59148;DHT22;44930;52.878;6.168;2023-07-31T15:48:23;18.90;99.90
59148;DHT22;44930;52.878;6.168;2023-07-31T15:50:48;18.90;99.90
59148;DHT22;44930;52.878;6.168;2023-07-31T15:53:14;18.70;99.90
59148;DHT22;44930;52.878;6.168;2023-07-31T15:55:39;18.80;99.90
59148;DHT22;44930;52.878;6.168;2023-07-31T15:58:05;18.80;99.90
59148;DHT22;44930;52.878;6.168;2023-07-31T16:00:32;18.80;99.90
59148;DHT22;44930;52.878;6.168;2023-07-31T16:02:57;18.60;99.90